createdAt,value
2022-08-04T00:00:25.504Z,99.90
2022-08-04T00:03:17.172Z,99.90
2022-08-04T00:05:59.079Z,99.90
2022-08-04T00:08:50.189Z,99.90
2022-08-04T00:11:30.456Z,99.90
2022-08-04T00:14:12.734Z,99.90
2022-08-04T00:16:42.850Z,99.90
2022-08-04T00:19:19.286Z,99.90
2022-08-04T00:21:54.007Z,99.90
2022-08-04T00:24:23.113Z,99.90
2022-08-04T00:26:54.483Z,99.90
2022-08-04T00:29:22.947Z,99.90
2022-08-04T00:31:56.981Z,99.90
2022-08-04T00:34:30.617Z,99.90
2022-08-04T00:36:58.575Z,99.90
2022-08-04T00:39:27.155Z,99.90
2022-08-04T00:42:09.131Z,99.90
2022-08-04T00:45:10.780Z,99.90
2022-08-04T00:48:11.012Z,99.90
2022-08-04T00:50:43.743Z,99.90
2022-08-04T00:54:12.365Z,99.90
2022-08-04T00:57:03.995Z,99.90
2022-08-04T00:59:41.016Z,99.90
2022-08-04T01:02:26.411Z,99.90
2022-08-04T01:05:07.106Z,99.90
2022-08-04T01:08:01.506Z,99.90
2022-08-04T01:11:05.563Z,99.90
2022-08-04T01:14:17.630Z,99.90
2022-08-04T01:17:07.593Z,99.90
2022-08-04T01:19:54.185Z,99.90
2022-08-04T01:23:19.553Z,99.90
2022-08-04T01:26:42.105Z,99.90
2022-08-04T01:29:14.255Z,99.90
2022-08-04T01:32:17.477Z,99.90
2022-08-04T01:34:53.007Z,99.90
2022-08-04T01:38:21.138Z,99.90
2022-08-04T01:40:55.890Z,99.90
2022-08-04T01:43:24.475Z,99.90
2022-08-04T01:45:58.210Z,99.90
2022-08-04T01:48:27.465Z,99.90
2022-08-04T01:50:59.603Z,99.90
2022-08-04T01:53:33.099Z,99.90
2022-08-04T01:56:02.577Z,99.90
2022-08-04T01:58:33.267Z,99.90
2022-08-04T02:01:11.451Z,99.90
2022-08-04T02:04:21.602Z,99.90
2022-08-04T02:06:50.304Z,99.90
2022-08-04T02:09:55.221Z,99.90
2022-08-04T02:12:42.811Z,99.90
2022-08-04T02:15:24.895Z,99.90
2022-08-04T02:18:04.881Z,99.90
2022-08-04T02:20:35.706Z,99.90
2022-08-04T02:23:10.951Z,99.90
2022-08-04T02:25:48.092Z,99.90
2022-08-04T02:28:48.100Z,99.90
2022-08-04T02:31:50.078Z,99.90
2022-08-04T02:34:48.661Z,99.90
2022-08-04T02:37:18.110Z,99.90
2022-08-04T02:39:49.484Z,99.90
2022-08-04T02:42:17.655Z,99.90
2022-08-04T02:44:50.935Z,99.90
2022-08-04T02:47:22.695Z,99.90
2022-08-04T02:49:52.943Z,99.90
2022-08-04T02:52:21.200Z,99.90
2022-08-04T02:54:53.858Z,99.90
2022-08-04T02:57:27.020Z,99.90
2022-08-04T03:00:14.363Z,99.90
2022-08-04T03:03:34.976Z,99.90
2022-08-04T03:06:13.618Z,99.90
2022-08-04T03:09:13.987Z,99.90
2022-08-04T03:12:46.024Z,99.90
2022-08-04T03:15:53.177Z,99.90
2022-08-04T03:19:10.713Z,99.90
2022-08-04T03:22:08.638Z,99.90
2022-08-04T03:25:15.665Z,99.90
2022-08-04T03:27:51.414Z,99.90
2022-08-04T03:30:53.056Z,99.90
2022-08-04T03:33:36.894Z,99.90
2022-08-04T03:36:47.134Z,99.90
2022-08-04T03:39:23.423Z,99.90
2022-08-04T03:43:07.219Z,99.90
2022-08-04T03:45:40.191Z,99.90
2022-08-04T03:48:24.804Z,99.90
2022-08-04T03:52:13.281Z,99.90
2022-08-04T03:55:16.951Z,99.90
2022-08-04T03:58:40.540Z,99.90
2022-08-04T04:02:06.550Z,99.90
2022-08-04T04:05:05.207Z,99.90
2022-08-04T04:08:28.894Z,99.90
2022-08-04T04:11:24.575Z,99.90
2022-08-04T04:14:21.526Z,99.90
2022-08-04T04:17:31.549Z,99.90
2022-08-04T04:20:19.663Z,99.90
2022-08-04T04:24:11.737Z,99.90
2022-08-04T04:27:08.127Z,99.90
2022-08-04T04:29:56.243Z,99.90
2022-08-04T04:32:32.116Z,99.90
2022-08-04T04:35:48.001Z,99.90
2022-08-04T04:38:49.871Z,99.90
2022-08-04T04:41:36.663Z,99.90
2022-08-04T04:44:48.336Z,99.90
2022-08-04T04:48:10.621Z,99.90
2022-08-04T04:51:08.660Z,99.90
2022-08-04T04:54:00.051Z,99.90
2022-08-04T04:56:47.138Z,99.90
2022-08-04T04:59:20.945Z,99.90
2022-08-04T05:02:17.332Z,99.90
2022-08-04T05:05:07.108Z,99.90
2022-08-04T05:07:55.814Z,99.90
2022-08-04T05:10:25.597Z,99.90
2022-08-04T05:14:38.767Z,99.90
2022-08-04T05:16:48.074Z,99.90
2022-08-04T05:19:41.074Z,99.90
2022-08-04T05:22:14.915Z,99.90
2022-08-04T05:24:46.308Z,99.90
2022-08-04T05:27:40.469Z,99.90
2022-08-04T05:30:09.289Z,99.90
2022-08-04T05:33:04.114Z,99.90
2022-08-04T05:36:16.949Z,99.90
2022-08-04T05:38:38.028Z,99.90
2022-08-04T05:41:06.611Z,99.90
2022-08-04T05:43:34.783Z,99.90
2022-08-04T05:46:02.902Z,99.90
2022-08-04T05:48:32.872Z,99.90
2022-08-04T05:51:01.800Z,99.90
2022-08-04T05:53:29.658Z,99.90
2022-08-04T05:55:59.558Z,99.90
2022-08-04T05:58:31.944Z,99.90
2022-08-04T06:01:01.481Z,99.90
2022-08-04T06:03:31.928Z,99.90
2022-08-04T06:05:59.847Z,99.90
2022-08-04T06:08:27.186Z,99.90
2022-08-04T06:10:58.038Z,99.90
2022-08-04T06:13:50.911Z,99.90
2022-08-04T06:16:30.036Z,99.90
2022-08-04T06:20:00.270Z,99.90
2022-08-04T06:22:03.582Z,99.90
2022-08-04T06:24:33.229Z,99.90
2022-08-04T06:27:00.780Z,99.90
2022-08-04T06:29:41.226Z,99.90
2022-08-04T06:32:40.010Z,99.90
2022-08-04T06:35:10.306Z,99.90
2022-08-04T06:37:42.580Z,99.90
2022-08-04T06:40:31.374Z,99.90
2022-08-04T06:43:07.025Z,99.90
2022-08-04T06:45:37.709Z,99.90
2022-08-04T06:48:06.864Z,99.90
2022-08-04T06:51:33.340Z,99.90
2022-08-04T06:53:27.490Z,99.90
2022-08-04T06:55:57.449Z,99.90
2022-08-04T06:58:25.612Z,99.90
2022-08-04T07:00:54.963Z,99.90
2022-08-04T07:03:22.710Z,99.90
2022-08-04T07:05:52.100Z,99.90
2022-08-04T07:08:20.995Z,99.90
2022-08-04T07:10:48.906Z,99.90
2022-08-04T07:13:17.148Z,99.90
2022-08-04T07:15:48.667Z,99.90
2022-08-04T07:18:16.338Z,99.90
2022-08-04T07:20:45.693Z,99.90
2022-08-04T07:23:17.751Z,99.90
2022-08-04T07:26:11.350Z,99.90
2022-08-04T07:28:40.802Z,99.90
2022-08-04T07:31:33.382Z,99.90
2022-08-04T07:34:16.778Z,99.90
2022-08-04T07:36:55.334Z,99.90
2022-08-04T07:39:28.438Z,99.90
2022-08-04T07:41:58.705Z,99.90
2022-08-04T07:44:26.427Z,99.90
2022-08-04T07:46:53.755Z,99.90
2022-08-04T07:49:52.100Z,99.90
2022-08-04T07:52:09.044Z,99.90
2022-08-04T07:54:36.460Z,99.90
2022-08-04T07:57:03.825Z,99.90
2022-08-04T07:59:31.358Z,99.90
2022-08-04T08:02:02.568Z,99.90
2022-08-04T08:04:30.475Z,99.90
2022-08-04T08:06:58.802Z,99.90
2022-08-04T08:09:26.224Z,99.90
2022-08-04T08:12:35.578Z,99.90
2022-08-04T08:14:43.323Z,99.90
2022-08-04T08:17:10.377Z,99.90
2022-08-04T08:19:38.439Z,99.90
2022-08-04T08:22:05.823Z,99.90
2022-08-04T08:24:37.137Z,99.90
2022-08-04T08:27:05.302Z,99.90
2022-08-04T08:29:35.526Z,99.90
2022-08-04T08:32:08.071Z,99.90
2022-08-04T08:34:37.333Z,99.90
2022-08-04T08:37:19.266Z,99.90
2022-08-04T08:40:08.431Z,99.90
2022-08-04T08:44:05.462Z,99.90
2022-08-04T08:46:49.716Z,99.90
2022-08-04T08:50:10.669Z,99.90
2022-08-04T08:53:02.194Z,99.90
2022-08-04T08:56:08.262Z,99.90
2022-08-04T08:58:47.197Z,99.90
2022-08-04T09:01:53.893Z,99.90
2022-08-04T09:04:36.020Z,99.90
2022-08-04T09:07:37.726Z,99.90
2022-08-04T09:10:36.481Z,99.90
2022-08-04T09:13:10.875Z,99.90
2022-08-04T09:16:17.810Z,99.90
2022-08-04T09:19:05.629Z,99.90
2022-08-04T09:21:40.407Z,99.90
2022-08-04T09:24:35.906Z,99.90
2022-08-04T09:27:32.620Z,99.90
2022-08-04T09:30:08.120Z,99.90
2022-08-04T09:33:44.683Z,99.90
2022-08-04T09:36:41.528Z,99.90
2022-08-04T09:39:20.460Z,99.90
2022-08-04T09:42:18.303Z,99.90
2022-08-04T09:45:06.111Z,99.90
2022-08-04T09:47:59.511Z,99.90
2022-08-04T09:50:49.938Z,99.90
2022-08-04T09:53:57.988Z,99.90
2022-08-04T09:56:55.180Z,99.90
2022-08-04T09:59:58.439Z,99.90
2022-08-04T10:02:27.316Z,99.90
2022-08-04T10:04:56.995Z,99.90
2022-08-04T10:08:04.822Z,99.00
2022-08-04T10:10:49.516Z,98.10
2022-08-04T10:13:28.751Z,98.10
2022-08-04T10:16:47.738Z,96.70
2022-08-04T10:19:31.729Z,96.40
2022-08-04T10:22:30.603Z,98.30
2022-08-04T10:26:03.437Z,97.10
2022-08-04T10:28:21.474Z,97.00
2022-08-04T10:30:55.865Z,94.70
2022-08-04T10:33:33.247Z,94.40
2022-08-04T10:36:07.642Z,93.90
2022-08-04T10:39:07.642Z,92.40
2022-08-04T10:42:10.463Z,92.40
2022-08-04T10:44:49.247Z,90.50
2022-08-04T10:47:25.213Z,90.50
2022-08-04T10:50:00.032Z,89.10
2022-08-04T10:52:48.778Z,90.90
2022-08-04T10:55:21.890Z,88.60
2022-08-04T10:58:07.602Z,85.70
2022-08-04T11:00:39.217Z,86.20
2022-08-04T11:03:38.966Z,88.80
2022-08-04T11:06:06.668Z,88.00
2022-08-04T11:08:44.820Z,85.20
2022-08-04T11:12:02.056Z,85.80
2022-08-04T11:14:56.388Z,80.40
2022-08-04T11:17:33.707Z,80.10
2022-08-04T11:20:33.571Z,79.80
2022-08-04T11:23:10.960Z,77.80
2022-08-04T11:25:52.045Z,77.60
2022-08-04T11:28:43.243Z,77.20
2022-08-04T11:31:26.316Z,76.10
2022-08-04T11:34:18.737Z,74.70
2022-08-04T11:37:05.430Z,72.20
2022-08-04T11:40:31.352Z,73.90
2022-08-04T11:43:08.860Z,73.20
2022-08-04T11:45:42.429Z,74.40
2022-08-04T11:48:25.387Z,72.70
2022-08-04T11:50:55.075Z,71.80
2022-08-04T11:56:36.753Z,72.50
2022-08-04T11:59:04.758Z,72.50
2022-08-04T12:02:03.160Z,72.80
2022-08-04T12:05:06.716Z,69.90
2022-08-04T12:08:07.641Z,69.60
2022-08-04T12:11:21.288Z,68.20
2022-08-04T12:14:26.617Z,66.70
2022-08-04T12:17:01.075Z,68.50
2022-08-04T12:20:03.120Z,68.00
2022-08-04T12:22:31.516Z,68.50
2022-08-04T12:25:09.370Z,69.30
2022-08-04T12:27:48.257Z,66.40
2022-08-04T12:31:02.138Z,66.80
2022-08-04T12:34:02.820Z,65.70
2022-08-04T12:36:45.774Z,71.40
2022-08-04T12:39:23.436Z,70.20
2022-08-04T12:42:08.098Z,69.50
2022-08-04T12:44:39.333Z,65.20
2022-08-04T12:47:26.860Z,67.20
2022-08-04T12:50:04.153Z,64.30
2022-08-04T12:53:01.083Z,66.00
2022-08-04T12:55:33.596Z,63.80
2022-08-04T12:58:03.671Z,64.50
2022-08-04T13:00:41.231Z,64.10
2022-08-04T13:03:16.995Z,64.70
2022-08-04T13:05:45.526Z,66.30
2022-08-04T13:08:13.881Z,65.10
2022-08-04T13:10:46.728Z,67.50
2022-08-04T13:13:25.151Z,65.70
2022-08-04T13:16:07.711Z,64.80
2022-08-04T13:18:42.858Z,63.30
2022-08-04T13:21:19.877Z,67.80
2022-08-04T13:24:10.704Z,66.50
2022-08-04T13:26:55.624Z,63.40
2022-08-04T13:30:00.084Z,62.60
2022-08-04T13:32:28.983Z,63.60
2022-08-04T13:35:01.063Z,63.30
2022-08-04T13:37:51.596Z,63.00
2022-08-04T13:40:23.845Z,61.90
2022-08-04T13:42:56.272Z,64.70
2022-08-04T13:45:24.953Z,63.00
2022-08-04T13:48:31.938Z,64.20
2022-08-04T13:51:07.317Z,66.80
2022-08-04T13:53:41.222Z,61.20
2022-08-04T13:56:11.465Z,60.20
2022-08-04T13:58:46.824Z,60.90
2022-08-04T14:01:20.670Z,63.30
2022-08-04T14:04:25.723Z,61.10
2022-08-04T14:07:01.793Z,59.90
2022-08-04T14:09:35.446Z,61.20
2022-08-04T14:12:38.910Z,59.80
2022-08-04T14:15:01.204Z,61.60
2022-08-04T14:17:30.000Z,60.60
2022-08-04T14:20:03.804Z,60.90
2022-08-04T14:22:37.060Z,59.00
2022-08-04T14:25:17.798Z,60.40
2022-08-04T14:27:53.605Z,62.50
2022-08-04T14:30:36.183Z,60.10
2022-08-04T14:34:02.598Z,60.80
2022-08-04T14:36:01.518Z,59.20
2022-08-04T14:39:00.278Z,59.20
2022-08-04T14:41:32.624Z,60.60
2022-08-04T14:44:03.789Z,61.40
2022-08-04T14:46:36.542Z,61.70
2022-08-04T14:49:13.283Z,60.80
2022-08-04T14:51:51.430Z,61.80
2022-08-04T14:54:35.581Z,59.70
2022-08-04T14:57:06.340Z,59.90
2022-08-04T15:00:00.512Z,60.10
2022-08-04T15:02:29.736Z,61.30
2022-08-04T15:04:57.876Z,58.10
2022-08-04T15:07:25.721Z,57.20
2022-08-04T15:09:53.034Z,57.50
2022-08-04T15:12:21.041Z,57.40
2022-08-04T15:14:48.299Z,57.20
2022-08-04T15:17:30.265Z,57.30
2022-08-04T15:19:58.028Z,59.00
2022-08-04T15:22:25.330Z,59.50
2022-08-04T15:24:55.360Z,56.90
2022-08-04T15:27:28.615Z,56.60
2022-08-04T15:30:02.252Z,57.10
2022-08-04T15:32:35.019Z,56.50
2022-08-04T15:35:30.793Z,56.10
2022-08-04T15:38:15.044Z,58.50
2022-08-04T15:40:57.425Z,56.80
2022-08-04T15:43:45.458Z,56.90
2022-08-04T15:46:43.135Z,57.50
2022-08-04T15:49:20.428Z,57.00
2022-08-04T15:51:47.499Z,58.00
2022-08-04T15:54:23.343Z,56.90
2022-08-04T15:57:02.150Z,58.40
2022-08-04T16:00:05.323Z,58.40
2022-08-04T16:02:32.786Z,55.70
2022-08-04T16:05:18.147Z,57.20
2022-08-04T16:08:10.060Z,55.30
2022-08-04T16:10:40.240Z,57.20
2022-08-04T16:13:16.910Z,57.00
2022-08-04T16:15:52.107Z,59.30
2022-08-04T16:18:31.384Z,59.50
2022-08-04T16:21:05.172Z,56.50
2022-08-04T16:23:56.853Z,56.70
2022-08-04T16:26:37.771Z,56.90
2022-08-04T16:29:23.532Z,56.50
2022-08-04T16:32:06.147Z,57.20
2022-08-04T16:34:53.918Z,58.00
2022-08-04T16:37:38.436Z,58.50
2022-08-04T16:40:37.551Z,58.50
2022-08-04T16:43:18.294Z,58.70
2022-08-04T16:45:58.912Z,59.80
2022-08-04T16:48:31.799Z,59.90
2022-08-04T16:51:23.923Z,60.10
2022-08-04T16:53:52.539Z,60.30
2022-08-04T16:56:33.055Z,60.50
2022-08-04T16:59:12.611Z,61.40
2022-08-04T17:01:51.792Z,66.00
2022-08-04T17:04:28.263Z,66.70
2022-08-04T17:07:01.790Z,67.60
2022-08-04T17:09:30.211Z,68.30
2022-08-04T17:11:58.817Z,68.50
2022-08-04T17:14:31.247Z,69.60
2022-08-04T17:17:01.122Z,70.90
2022-08-04T17:19:28.267Z,67.40
2022-08-04T17:22:04.693Z,67.70
2022-08-04T17:24:38.808Z,65.00
2022-08-04T17:28:19.630Z,66.80
2022-08-04T17:29:55.154Z,67.70
2022-08-04T17:32:23.381Z,71.10
2022-08-04T17:34:54.244Z,69.40
2022-08-04T17:37:53.300Z,69.60
2022-08-04T17:40:18.421Z,70.80
2022-08-04T17:44:05.156Z,70.80
2022-08-04T17:46:29.125Z,73.20
2022-08-04T17:49:08.273Z,73.60
2022-08-04T17:52:07.002Z,77.50
2022-08-04T17:54:40.358Z,77.10
2022-08-04T17:57:20.675Z,76.80
2022-08-04T17:59:59.957Z,78.10
2022-08-04T18:02:34.728Z,80.30
2022-08-04T18:05:11.604Z,83.10
2022-08-04T18:08:38.852Z,84.90
2022-08-04T18:13:28.887Z,85.60
2022-08-04T18:16:05.034Z,85.40
2022-08-04T18:18:32.980Z,84.70
2022-08-04T18:21:02.893Z,84.30
2022-08-04T18:23:32.906Z,85.40
2022-08-04T18:26:01.811Z,87.50
2022-08-04T18:28:33.279Z,87.40
2022-08-04T18:31:02.023Z,87.60
2022-08-04T18:33:39.671Z,89.40
2022-08-04T18:36:33.573Z,90.70
2022-08-04T18:38:58.621Z,91.30
2022-08-04T18:41:28.243Z,92.50
2022-08-04T18:43:56.933Z,92.40
2022-08-04T18:46:27.340Z,91.70
2022-08-04T18:48:57.152Z,92.20
2022-08-04T18:51:30.755Z,92.10
2022-08-04T18:57:25.197Z,91.60
2022-08-04T18:59:32.470Z,91.20
2022-08-04T19:02:12.792Z,91.30
2022-08-04T19:04:44.815Z,91.50
2022-08-04T19:07:33.717Z,92.00
2022-08-04T19:10:04.554Z,92.30
2022-08-04T19:12:32.502Z,92.20
2022-08-04T19:15:10.793Z,91.40
2022-08-04T19:17:54.297Z,92.20
2022-08-04T19:20:26.768Z,92.40
2022-08-04T19:24:28.468Z,91.60
2022-08-04T19:28:34.178Z,89.70
2022-08-04T19:31:04.726Z,87.40
2022-08-04T19:33:58.513Z,88.90
2022-08-04T19:36:28.490Z,90.60
2022-08-04T19:38:57.798Z,91.10
2022-08-04T19:41:26.525Z,91.50
2022-08-04T19:43:54.678Z,91.50
2022-08-04T19:46:24.777Z,90.70
2022-08-04T19:48:59.636Z,90.30
2022-08-04T19:51:33.626Z,90.10
2022-08-04T19:54:02.758Z,90.30
2022-08-04T19:56:40.500Z,88.30
2022-08-04T19:59:10.256Z,90.60
2022-08-04T20:01:44.826Z,91.10
2022-08-04T20:04:15.840Z,90.70
2022-08-04T20:06:43.744Z,92.00
2022-08-04T20:09:25.801Z,94.00
2022-08-04T20:11:58.337Z,95.20
2022-08-04T20:14:32.597Z,95.80
2022-08-04T20:17:02.791Z,96.10
2022-08-04T20:19:30.333Z,96.40
2022-08-04T20:21:58.280Z,96.80
2022-08-04T20:24:37.791Z,97.10
2022-08-04T20:27:16.158Z,97.50
2022-08-04T20:29:50.982Z,98.30
2022-08-04T20:32:22.136Z,98.50
2022-08-04T20:34:52.150Z,98.10
2022-08-04T20:37:23.214Z,97.80
2022-08-04T20:40:05.175Z,98.60
2022-08-04T20:42:34.045Z,98.20
2022-08-04T20:45:02.261Z,98.70
2022-08-04T20:47:35.182Z,98.60
2022-08-04T20:50:07.944Z,98.70
2022-08-04T20:52:37.242Z,99.50
2022-08-04T20:55:06.840Z,99.90
2022-08-04T20:57:49.795Z,99.90
2022-08-04T21:00:29.750Z,99.90
2022-08-04T21:03:00.623Z,99.90
2022-08-04T21:05:28.851Z,99.90
2022-08-04T21:07:58.735Z,99.90
2022-08-04T21:10:26.492Z,99.90
2022-08-04T21:12:54.966Z,99.90
2022-08-04T21:15:26.209Z,99.90
2022-08-04T21:18:13.920Z,99.90
2022-08-04T21:20:43.157Z,99.90
2022-08-04T21:23:10.506Z,99.90
2022-08-04T21:28:25.672Z,99.90
2022-08-04T21:30:55.092Z,99.90
2022-08-04T21:33:43.925Z,99.90
2022-08-04T21:36:13.918Z,99.90
2022-08-04T21:38:41.945Z,99.90
2022-08-04T21:41:20.421Z,99.90
2022-08-04T21:43:52.495Z,99.90
2022-08-04T21:46:20.230Z,99.90
2022-08-04T21:48:48.688Z,99.90
2022-08-04T21:52:00.636Z,99.90
2022-08-04T21:54:14.873Z,99.90
2022-08-04T21:59:31.220Z,99.90
2022-08-04T22:02:00.829Z,99.90
2022-08-04T22:04:30.079Z,99.90
2022-08-04T22:06:57.296Z,99.90
2022-08-04T22:09:24.229Z,99.90
2022-08-04T22:11:55.856Z,99.90
2022-08-04T22:14:29.039Z,99.90
2022-08-04T22:16:57.034Z,99.90
2022-08-04T22:19:39.633Z,99.90
2022-08-04T22:22:12.634Z,99.90
2022-08-04T22:24:52.144Z,99.90
2022-08-04T22:27:39.352Z,99.90
2022-08-04T22:30:13.344Z,99.90
2022-08-04T22:32:44.345Z,99.90
2022-08-04T22:35:36.190Z,99.90
2022-08-04T22:38:06.690Z,99.90
2022-08-04T22:40:38.708Z,99.90
2022-08-04T22:43:31.299Z,99.90
2022-08-04T22:45:52.764Z,99.90
2022-08-04T22:48:20.677Z,99.90
2022-08-04T22:50:49.719Z,99.90
2022-08-04T22:53:18.059Z,99.90
2022-08-04T22:55:57.454Z,99.90
2022-08-04T22:58:32.566Z,99.90
2022-08-04T23:01:00.374Z,99.90
2022-08-04T23:03:37.108Z,99.90
2022-08-04T23:06:11.687Z,99.90
2022-08-04T23:08:43.130Z,99.90
2022-08-04T23:11:14.755Z,99.90
2022-08-04T23:13:42.086Z,99.90
2022-08-04T23:16:10.530Z,99.90
2022-08-04T23:18:41.778Z,99.90
2022-08-04T23:21:11.057Z,99.90
2022-08-04T23:23:45.690Z,99.90
2022-08-04T23:26:27.605Z,99.90
2022-08-04T23:28:56.325Z,99.90
2022-08-04T23:31:24.710Z,99.90
2022-08-04T23:33:52.371Z,99.90
2022-08-04T23:36:29.637Z,99.90
2022-08-04T23:39:04.223Z,99.90
2022-08-04T23:41:51.403Z,99.90
2022-08-04T23:44:24.611Z,99.90
2022-08-04T23:47:04.558Z,99.90
2022-08-04T23:49:45.057Z,99.90
2022-08-04T23:52:27.990Z,99.90
2022-08-04T23:55:00.763Z,99.90
2022-08-04T23:58:02.142Z,99.90
